sensor_id;sensor_type;location;lat;lon;timestamp;P1;durP1;ratioP1;P2;durP2;ratioP2
22851;SDS011;11592;45.460;9.240;2023-09-18T00:00:30;16.40;;;10.50;;
22851;SDS011;11592;45.460;9.240;2023-09-18T00:02:59;16.55;;;8.93;;
22851;SDS011;11592;45.460;9.240;2023-09-18T00:05:29;16.08;;;9.70;;
22851;SDS011;11592;45.460;9.240;2023-09-18T00:07:57;22.30;;;9.73;;
22851;SDS011;11592;45.460;9.240;2023-09-18T00:10:25;13.02;;;9.32;;
22851;SDS011;11592;45.460;9.240;2023-09-18T00:12:52;15.30;;;10.15;;
22851;SDS011;11592;45.460;9.240;2023-09-18T00:15:19;12.40;;;9.18;;
22851;SDS011;11592;45.460;9.240;2023-09-18T00:17:46;14.20;;;9.65;;
22851;SDS011;11592;45.460;9.240;2023-09-18T00:20:13;15.43;;;9.65;;
22851;SDS011;11592;45.460;9.240;2023-09-18T00:22:43;13.13;;;9.52;;
22851;SDS011;11592;45.460;9.240;2023-09-18T00:25:10;13.65;;;9.80;;
22851;SDS011;11592;45.460;9.240;2023-09-18T00:27:37;15.32;;;10.25;;
22851;SDS011;11592;45.460;9.240;2023-09-18T00:30:04;13.25;;;9.55;;
22851;SDS011;11592;45.460;9.240;2023-09-18T00:32:32;14.65;;;10.00;;
22851;SDS011;11592;45.460;9.240;2023-09-18T00:34:59;15.45;;;10.65;;
22851;SDS011;11592;45.460;9.240;2023-09-18T00:37:26;13.38;;;10.27;;
22851;SDS011;11592;45.460;9.240;2023-09-18T00:39:54;13.98;;;10.20;;
22851;SDS011;11592;45.460;9.240;2023-09-18T00:42:21;14.00;;;10.38;;
22851;SDS011;11592;45.460;9.240;2023-09-18T00:44:49;18.70;;;11.13;;
22851;SDS011;11592;45.460;9.240;2023-09-18T00:47:17;14.75;;;10.48;;
22851;SDS011;11592;45.460;9.240;2023-09-18T00:49:48;13.70;;;10.35;;
22851;SDS011;11592;45.460;9.240;2023-09-18T00:52:17;14.27;;;10.43;;
22851;SDS011;11592;45.460;9.240;2023-09-18T00:54:48;18.65;;;11.95;;
22851;SDS011;11592;45.460;9.240;2023-09-18T00:57:15;11.70;;;9.77;;
22851;SDS011;11592;45.460;9.240;2023-09-18T00:59:42;15.88;;;10.93;;
22851;SDS011;11592;45.460;9.240;2023-09-18T01:02:09;14.93;;;11.07;;
22851;SDS011;11592;45.460;9.240;2023-09-18T01:04:36;13.32;;;9.95;;
22851;SDS011;11592;45.460;9.240;2023-09-18T01:07:04;13.77;;;10.07;;
22851;SDS011;11592;45.460;9.240;2023-09-18T01:09:31;14.75;;;10.48;;
22851;SDS011;11592;45.460;9.240;2023-09-18T01:12:14;14.32;;;10.73;;
22851;SDS011;11592;45.460;9.240;2023-09-18T01:17:34;13.80;;;10.50;;
22851;SDS011;11592;45.460;9.240;2023-09-18T01:20:04;18.92;;;11.82;;
22851;SDS011;11592;45.460;9.240;2023-09-18T01:22:35;17.90;;;11.32;;
22851;SDS011;11592;45.460;9.240;2023-09-18T01:25:02;17.30;;;10.88;;
22851;SDS011;11592;45.460;9.240;2023-09-18T01:27:29;17.60;;;10.35;;
22851;SDS011;11592;45.460;9.240;2023-09-18T01:29:56;16.77;;;10.93;;
22851;SDS011;11592;45.460;9.240;2023-09-18T01:32:24;17.23;;;10.80;;
22851;SDS011;11592;45.460;9.240;2023-09-18T01:34:54;16.30;;;11.02;;
22851;SDS011;11592;45.460;9.240;2023-09-18T01:37:24;17.52;;;11.45;;
22851;SDS011;11592;45.460;9.240;2023-09-18T01:39:53;17.90;;;10.95;;
22851;SDS011;11592;45.460;9.240;2023-09-18T01:42:21;23.58;;;12.55;;
22851;SDS011;11592;45.460;9.240;2023-09-18T01:44:49;19.08;;;11.32;;
22851;SDS011;11592;45.460;9.240;2023-09-18T01:47:16;18.67;;;11.60;;
22851;SDS011;11592;45.460;9.240;2023-09-18T01:49:44;16.80;;;11.13;;
22851;SDS011;11592;45.460;9.240;2023-09-18T01:52:12;18.15;;;11.00;;
22851;SDS011;11592;45.460;9.240;2023-09-18T01:54:39;17.08;;;11.32;;
22851;SDS011;11592;45.460;9.240;2023-09-18T01:57:06;18.73;;;11.85;;
22851;SDS011;11592;45.460;9.240;2023-09-18T01:59:33;18.70;;;11.43;;
22851;SDS011;11592;45.460;9.240;2023-09-18T02:02:03;16.65;;;11.55;;
22851;SDS011;11592;45.460;9.240;2023-09-18T02:04:33;17.00;;;11.50;;
22851;SDS011;11592;45.460;9.240;2023-09-18T02:07:20;18.50;;;12.02;;
22851;SDS011;11592;45.460;9.240;2023-09-18T02:09:47;17.67;;;11.75;;
22851;SDS011;11592;45.460;9.240;2023-09-18T02:12:14;17.20;;;12.35;;
22851;SDS011;11592;45.460;9.240;2023-09-18T02:14:46;17.63;;;11.88;;
22851;SDS011;11592;45.460;9.240;2023-09-18T02:17:13;18.27;;;11.98;;
22851;SDS011;11592;45.460;9.240;2023-09-18T02:19:40;21.23;;;13.00;;
22851;SDS011;11592;45.460;9.240;2023-09-18T02:22:07;16.85;;;11.48;;
22851;SDS011;11592;45.460;9.240;2023-09-18T02:24:34;17.88;;;11.15;;
22851;SDS011;11592;45.460;9.240;2023-09-18T02:27:03;21.35;;;12.80;;
22851;SDS011;11592;45.460;9.240;2023-09-18T02:29:31;17.15;;;11.77;;
22851;SDS011;11592;45.460;9.240;2023-09-18T02:31:58;23.20;;;12.85;;
22851;SDS011;11592;45.460;9.240;2023-09-18T02:34:25;21.48;;;12.55;;
22851;SDS011;11592;45.460;9.240;2023-09-18T02:36:52;19.33;;;12.52;;
22851;SDS011;11592;45.460;9.240;2023-09-18T02:39:19;24.10;;;12.45;;
22851;SDS011;11592;45.460;9.240;2023-09-18T02:41:46;20.20;;;12.57;;
22851;SDS011;11592;45.460;9.240;2023-09-18T02:44:12;21.88;;;13.43;;
22851;SDS011;11592;45.460;9.240;2023-09-18T02:46:39;19.95;;;12.65;;
22851;SDS011;11592;45.460;9.240;2023-09-18T02:49:08;21.02;;;12.55;;
22851;SDS011;11592;45.460;9.240;2023-09-18T02:51:35;17.45;;;11.85;;
22851;SDS011;11592;45.460;9.240;2023-09-18T02:54:03;17.58;;;11.40;;
22851;SDS011;11592;45.460;9.240;2023-09-18T02:56:30;18.73;;;12.25;;
22851;SDS011;11592;45.460;9.240;2023-09-18T02:58:57;19.48;;;11.98;;
22851;SDS011;11592;45.460;9.240;2023-09-18T03:01:24;21.13;;;12.45;;
22851;SDS011;11592;45.460;9.240;2023-09-18T03:03:51;19.05;;;11.90;;
22851;SDS011;11592;45.460;9.240;2023-09-18T03:06:18;18.90;;;11.57;;
22851;SDS011;11592;45.460;9.240;2023-09-18T03:08:45;16.27;;;11.75;;
22851;SDS011;11592;45.460;9.240;2023-09-18T03:11:13;18.10;;;11.93;;
22851;SDS011;11592;45.460;9.240;2023-09-18T03:13:46;14.88;;;11.43;;
22851;SDS011;11592;45.460;9.240;2023-09-18T03:16:13;15.38;;;11.07;;
22851;SDS011;11592;45.460;9.240;2023-09-18T03:18:40;17.00;;;11.05;;
22851;SDS011;11592;45.460;9.240;2023-09-18T03:21:07;18.85;;;11.48;;
22851;SDS011;11592;45.460;9.240;2023-09-18T03:23:34;18.17;;;11.50;;
22851;SDS011;11592;45.460;9.240;2023-09-18T03:26:02;17.35;;;11.55;;
22851;SDS011;11592;45.460;9.240;2023-09-18T03:28:29;19.38;;;12.40;;
22851;SDS011;11592;45.460;9.240;2023-09-18T03:30:56;20.60;;;12.55;;
22851;SDS011;11592;45.460;9.240;2023-09-18T03:33:24;24.92;;;13.07;;
22851;SDS011;11592;45.460;9.240;2023-09-18T03:35:53;18.13;;;12.65;;
22851;SDS011;11592;45.460;9.240;2023-09-18T03:38:24;18.63;;;12.07;;
22851;SDS011;11592;45.460;9.240;2023-09-18T03:40:51;18.25;;;11.50;;
22851;SDS011;11592;45.460;9.240;2023-09-18T03:43:20;17.77;;;12.63;;
22851;SDS011;11592;45.460;9.240;2023-09-18T03:45:47;16.95;;;11.50;;
22851;SDS011;11592;45.460;9.240;2023-09-18T03:48:14;18.65;;;12.73;;
22851;SDS011;11592;45.460;9.240;2023-09-18T03:50:41;22.67;;;13.73;;
22851;SDS011;11592;45.460;9.240;2023-09-18T03:53:09;19.88;;;13.55;;
22851;SDS011;11592;45.460;9.240;2023-09-18T03:55:37;18.75;;;13.32;;
22851;SDS011;11592;45.460;9.240;2023-09-18T03:58:04;26.35;;;14.25;;
22851;SDS011;11592;45.460;9.240;2023-09-18T04:00:31;21.90;;;15.20;;
22851;SDS011;11592;45.460;9.240;2023-09-18T04:02:58;25.42;;;16.60;;
22851;SDS011;11592;45.460;9.240;2023-09-18T04:05:25;20.90;;;14.95;;
22851;SDS011;11592;45.460;9.240;2023-09-18T04:07:53;22.60;;;16.02;;
22851;SDS011;11592;45.460;9.240;2023-09-18T04:10:20;24.50;;;15.27;;
22851;SDS011;11592;45.460;9.240;2023-09-18T04:12:50;26.10;;;15.43;;
22851;SDS011;11592;45.460;9.240;2023-09-18T04:15:18;24.52;;;17.10;;
22851;SDS011;11592;45.460;9.240;2023-09-18T04:17:46;25.98;;;16.80;;
22851;SDS011;11592;45.460;9.240;2023-09-18T04:20:13;23.13;;;16.92;;
22851;SDS011;11592;45.460;9.240;2023-09-18T04:22:45;24.77;;;16.13;;
22851;SDS011;11592;45.460;9.240;2023-09-18T04:25:16;25.35;;;17.05;;
22851;SDS011;11592;45.460;9.240;2023-09-18T04:27:46;31.58;;;19.42;;
22851;SDS011;11592;45.460;9.240;2023-09-18T04:30:13;26.95;;;18.92;;
22851;SDS011;11592;45.460;9.240;2023-09-18T04:32:40;30.30;;;20.77;;
22851;SDS011;11592;45.460;9.240;2023-09-18T04:35:08;32.75;;;21.48;;
22851;SDS011;11592;45.460;9.240;2023-09-18T04:37:36;32.78;;;23.20;;
22851;SDS011;11592;45.460;9.240;2023-09-18T04:40:07;35.15;;;23.40;;
22851;SDS011;11592;45.460;9.240;2023-09-18T04:42:38;36.08;;;24.33;;
22851;SDS011;11592;45.460;9.240;2023-09-18T04:45:06;34.40;;;23.63;;
22851;SDS011;11592;45.460;9.240;2023-09-18T04:47:34;35.92;;;24.35;;
22851;SDS011;11592;45.460;9.240;2023-09-18T04:50:01;35.08;;;23.75;;
22851;SDS011;11592;45.460;9.240;2023-09-18T04:52:35;35.08;;;23.58;;
22851;SDS011;11592;45.460;9.240;2023-09-18T04:55:03;34.70;;;23.95;;
22851;SDS011;11592;45.460;9.240;2023-09-18T04:57:32;34.92;;;24.42;;
22851;SDS011;11592;45.460;9.240;2023-09-18T05:00:00;34.47;;;22.92;;
22851;SDS011;11592;45.460;9.240;2023-09-18T05:02:42;37.22;;;23.25;;
22851;SDS011;11592;45.460;9.240;2023-09-18T05:05:10;34.13;;;22.63;;
22851;SDS011;11592;45.460;9.240;2023-09-18T05:07:37;35.10;;;23.52;;
22851;SDS011;11592;45.460;9.240;2023-09-18T05:10:04;36.78;;;24.40;;
22851;SDS011;11592;45.460;9.240;2023-09-18T05:12:31;37.55;;;25.35;;
22851;SDS011;11592;45.460;9.240;2023-09-18T05:14:58;40.72;;;25.58;;
22851;SDS011;11592;45.460;9.240;2023-09-18T05:17:39;40.50;;;26.05;;
22851;SDS011;11592;45.460;9.240;2023-09-18T05:20:11;35.05;;;24.60;;
22851;SDS011;11592;45.460;9.240;2023-09-18T05:22:42;38.72;;;26.88;;
22851;SDS011;11592;45.460;9.240;2023-09-18T05:25:09;40.63;;;26.73;;
22851;SDS011;11592;45.460;9.240;2023-09-18T05:27:37;41.90;;;27.65;;
22851;SDS011;11592;45.460;9.240;2023-09-18T05:30:14;45.03;;;27.90;;
22851;SDS011;11592;45.460;9.240;2023-09-18T05:32:42;42.60;;;28.70;;
22851;SDS011;11592;45.460;9.240;2023-09-18T05:35:11;40.90;;;27.25;;
22851;SDS011;11592;45.460;9.240;2023-09-18T05:37:43;41.05;;;29.67;;
22851;SDS011;11592;45.460;9.240;2023-09-18T05:40:13;40.05;;;27.08;;
22851;SDS011;11592;45.460;9.240;2023-09-18T05:42:40;40.05;;;28.92;;
22851;SDS011;11592;45.460;9.240;2023-09-18T05:45:12;41.92;;;27.70;;
22851;SDS011;11592;45.460;9.240;2023-09-18T05:47:41;43.55;;;29.48;;
22851;SDS011;11592;45.460;9.240;2023-09-18T05:50:10;43.05;;;29.75;;
22851;SDS011;11592;45.460;9.240;2023-09-18T05:52:43;51.30;;;31.73;;
22851;SDS011;11592;45.460;9.240;2023-09-18T05:55:10;48.38;;;31.75;;
22851;SDS011;11592;45.460;9.240;2023-09-18T05:57:38;43.88;;;30.25;;
22851;SDS011;11592;45.460;9.240;2023-09-18T06:00:06;44.63;;;29.90;;
22851;SDS011;11592;45.460;9.240;2023-09-18T06:02:33;51.03;;;32.00;;
22851;SDS011;11592;45.460;9.240;2023-09-18T06:05:00;51.60;;;34.17;;
22851;SDS011;11592;45.460;9.240;2023-09-18T06:07:29;48.53;;;35.00;;
22851;SDS011;11592;45.460;9.240;2023-09-18T06:09:57;60.00;;;38.20;;
22851;SDS011;11592;45.460;9.240;2023-09-18T06:12:24;62.22;;;40.00;;
22851;SDS011;11592;45.460;9.240;2023-09-18T06:14:52;58.08;;;36.47;;
22851;SDS011;11592;45.460;9.240;2023-09-18T06:17:19;58.13;;;39.60;;
22851;SDS011;11592;45.460;9.240;2023-09-18T06:19:46;56.30;;;38.65;;
22851;SDS011;11592;45.460;9.240;2023-09-18T06:22:13;61.95;;;39.17;;
22851;SDS011;11592;45.460;9.240;2023-09-18T06:24:40;66.00;;;41.90;;
22851;SDS011;11592;45.460;9.240;2023-09-18T06:27:08;65.68;;;41.92;;
22851;SDS011;11592;45.460;9.240;2023-09-18T06:29:37;60.75;;;41.33;;
22851;SDS011;11592;45.460;9.240;2023-09-18T06:32:05;65.32;;;42.20;;
22851;SDS011;11592;45.460;9.240;2023-09-18T06:34:33;68.53;;;43.33;;
22851;SDS011;11592;45.460;9.240;2023-09-18T06:37:00;62.15;;;40.30;;
22851;SDS011;11592;45.460;9.240;2023-09-18T06:39:27;65.30;;;41.45;;
22851;SDS011;11592;45.460;9.240;2023-09-18T06:41:54;63.13;;;41.92;;
22851;SDS011;11592;45.460;9.240;2023-09-18T06:44:21;67.95;;;43.72;;
22851;SDS011;11592;45.460;9.240;2023-09-18T06:46:50;75.20;;;44.00;;
22851;SDS011;11592;45.460;9.240;2023-09-18T06:49:17;69.40;;;46.30;;
22851;SDS011;11592;45.460;9.240;2023-09-18T06:51:46;71.18;;;46.13;;
22851;SDS011;11592;45.460;9.240;2023-09-18T06:54:13;77.05;;;46.15;;
22851;SDS011;11592;45.460;9.240;2023-09-18T06:56:40;70.97;;;46.25;;
22851;SDS011;11592;45.460;9.240;2023-09-18T06:59:08;68.90;;;46.45;;
22851;SDS011;11592;45.460;9.240;2023-09-18T07:01:35;73.88;;;46.03;;
22851;SDS011;11592;45.460;9.240;2023-09-18T07:04:02;72.13;;;45.50;;
22851;SDS011;11592;45.460;9.240;2023-09-18T07:06:31;72.90;;;47.88;;
22851;SDS011;11592;45.460;9.240;2023-09-18T07:08:58;76.30;;;49.08;;
22851;SDS011;11592;45.460;9.240;2023-09-18T07:11:25;81.15;;;50.97;;
22851;SDS011;11592;45.460;9.240;2023-09-18T07:13:52;77.10;;;50.33;;
22851;SDS011;11592;45.460;9.240;2023-09-18T07:16:19;80.13;;;50.70;;
22851;SDS011;11592;45.460;9.240;2023-09-18T07:18:46;75.03;;;48.90;;
22851;SDS011;11592;45.460;9.240;2023-09-18T07:21:13;75.90;;;47.90;;
22851;SDS011;11592;45.460;9.240;2023-09-18T07:23:40;77.20;;;48.20;;
22851;SDS011;11592;45.460;9.240;2023-09-18T07:26:07;75.18;;;47.08;;
22851;SDS011;11592;45.460;9.240;2023-09-18T07:28:34;76.15;;;48.50;;
22851;SDS011;11592;45.460;9.240;2023-09-18T07:31:05;74.18;;;47.60;;
22851;SDS011;11592;45.460;9.240;2023-09-18T07:33:33;76.57;;;46.22;;
22851;SDS011;11592;45.460;9.240;2023-09-18T07:36:00;70.18;;;46.70;;
22851;SDS011;11592;45.460;9.240;2023-09-18T07:38:27;73.70;;;45.90;;
22851;SDS011;11592;45.460;9.240;2023-09-18T07:40:54;73.15;;;45.88;;
22851;SDS011;11592;45.460;9.240;2023-09-18T07:43:23;68.97;;;44.15;;
22851;SDS011;11592;45.460;9.240;2023-09-18T07:45:52;77.03;;;46.03;;
22851;SDS011;11592;45.460;9.240;2023-09-18T07:48:21;74.50;;;45.10;;
22851;SDS011;11592;45.460;9.240;2023-09-18T07:50:49;71.20;;;44.28;;
22851;SDS011;11592;45.460;9.240;2023-09-18T07:53:17;72.75;;;46.20;;
22851;SDS011;11592;45.460;9.240;2023-09-18T07:55:45;72.93;;;45.38;;
22851;SDS011;11592;45.460;9.240;2023-09-18T07:58:14;75.15;;;45.55;;
22851;SDS011;11592;45.460;9.240;2023-09-18T08:00:40;72.32;;;45.03;;
22851;SDS011;11592;45.460;9.240;2023-09-18T08:03:07;70.32;;;43.63;;
22851;SDS011;11592;45.460;9.240;2023-09-18T08:05:35;65.55;;;42.83;;
22851;SDS011;11592;45.460;9.240;2023-09-18T08:08:02;67.65;;;43.72;;
22851;SDS011;11592;45.460;9.240;2023-09-18T08:10:31;66.95;;;41.60;;
22851;SDS011;11592;45.460;9.240;2023-09-18T08:12:59;67.88;;;41.45;;
22851;SDS011;11592;45.460;9.240;2023-09-18T08:15:26;66.88;;;41.17;;
22851;SDS011;11592;45.460;9.240;2023-09-18T08:17:53;61.63;;;38.45;;
22851;SDS011;11592;45.460;9.240;2023-09-18T08:20:20;55.33;;;34.67;;
22851;SDS011;11592;45.460;9.240;2023-09-18T08:22:47;58.53;;;36.05;;
22851;SDS011;11592;45.460;9.240;2023-09-18T08:25:15;55.17;;;34.67;;
22851;SDS011;11592;45.460;9.240;2023-09-18T08:27:42;60.55;;;36.30;;
22851;SDS011;11592;45.460;9.240;2023-09-18T08:30:11;58.22;;;34.80;;
22851;SDS011;11592;45.460;9.240;2023-09-18T08:32:39;50.88;;;33.22;;
22851;SDS011;11592;45.460;9.240;2023-09-18T08:35:08;52.88;;;35.70;;
22851;SDS011;11592;45.460;9.240;2023-09-18T08:37:35;51.80;;;34.25;;
22851;SDS011;11592;45.460;9.240;2023-09-18T08:40:02;48.95;;;32.13;;
22851;SDS011;11592;45.460;9.240;2023-09-18T08:42:46;49.92;;;31.90;;
22851;SDS011;11592;45.460;9.240;2023-09-18T08:45:15;51.45;;;31.10;;
22851;SDS011;11592;45.460;9.240;2023-09-18T08:48:00;53.63;;;33.90;;
22851;SDS011;11592;45.460;9.240;2023-09-18T08:50:28;47.15;;;30.25;;
22851;SDS011;11592;45.460;9.240;2023-09-18T08:52:55;49.65;;;31.08;;
22851;SDS011;11592;45.460;9.240;2023-09-18T08:55:23;42.75;;;31.00;;
22851;SDS011;11592;45.460;9.240;2023-09-18T08:57:50;49.80;;;32.60;;
22851;SDS011;11592;45.460;9.240;2023-09-18T09:00:19;48.40;;;32.72;;
22851;SDS011;11592;45.460;9.240;2023-09-18T09:02:47;47.90;;;31.17;;
22851;SDS011;11592;45.460;9.240;2023-09-18T09:05:17;54.85;;;35.58;;
22851;SDS011;11592;45.460;9.240;2023-09-18T09:07:45;45.78;;;32.20;;
22851;SDS011;11592;45.460;9.240;2023-09-18T09:10:12;51.40;;;32.72;;
22851;SDS011;11592;45.460;9.240;2023-09-18T09:15:23;46.22;;;29.85;;
22851;SDS011;11592;45.460;9.240;2023-09-18T09:18:06;47.67;;;30.92;;
22851;SDS011;11592;45.460;9.240;2023-09-18T09:20:35;43.55;;;30.02;;
22851;SDS011;11592;45.460;9.240;2023-09-18T09:23:04;48.20;;;29.98;;
22851;SDS011;11592;45.460;9.240;2023-09-18T09:25:35;42.03;;;29.73;;
22851;SDS011;11592;45.460;9.240;2023-09-18T09:28:04;45.22;;;28.92;;
22851;SDS011;11592;45.460;9.240;2023-09-18T09:30:32;50.30;;;28.38;;
22851;SDS011;11592;45.460;9.240;2023-09-18T09:33:02;52.13;;;31.88;;
22851;SDS011;11592;45.460;9.240;2023-09-18T09:35:31;45.13;;;30.55;;
22851;SDS011;11592;45.460;9.240;2023-09-18T09:38:01;44.78;;;29.73;;
22851;SDS011;11592;45.460;9.240;2023-09-18T09:40:35;40.77;;;29.00;;
22851;SDS011;11592;45.460;9.240;2023-09-18T09:43:04;41.38;;;28.63;;
22851;SDS011;11592;45.460;9.240;2023-09-18T09:45:35;45.28;;;29.50;;
22851;SDS011;11592;45.460;9.240;2023-09-18T09:48:03;46.80;;;30.63;;
22851;SDS011;11592;45.460;9.240;2023-09-18T09:50:43;43.60;;;30.02;;
22851;SDS011;11592;45.460;9.240;2023-09-18T09:53:15;44.33;;;27.63;;
22851;SDS011;11592;45.460;9.240;2023-09-18T09:55:43;42.53;;;26.42;;
22851;SDS011;11592;45.460;9.240;2023-09-18T09:58:10;42.70;;;28.52;;
22851;SDS011;11592;45.460;9.240;2023-09-18T10:03:14;41.72;;;27.17;;
22851;SDS011;11592;45.460;9.240;2023-09-18T10:05:44;42.47;;;28.38;;
22851;SDS011;11592;45.460;9.240;2023-09-18T10:08:22;40.08;;;26.48;;
22851;SDS011;11592;45.460;9.240;2023-09-18T10:10:52;42.13;;;27.73;;
22851;SDS011;11592;45.460;9.240;2023-09-18T10:13:23;41.28;;;26.23;;
22851;SDS011;11592;45.460;9.240;2023-09-18T10:15:58;41.75;;;27.33;;
22851;SDS011;11592;45.460;9.240;2023-09-18T10:18:38;48.60;;;26.20;;
22851;SDS011;11592;45.460;9.240;2023-09-18T10:24:28;37.53;;;24.33;;
22851;SDS011;11592;45.460;9.240;2023-09-18T10:29:24;39.15;;;24.70;;
22851;SDS011;11592;45.460;9.240;2023-09-18T10:31:52;35.92;;;24.88;;
22851;SDS011;11592;45.460;9.240;2023-09-18T10:34:20;34.97;;;24.85;;
22851;SDS011;11592;45.460;9.240;2023-09-18T10:36:49;39.35;;;23.48;;
22851;SDS011;11592;45.460;9.240;2023-09-18T10:39:17;36.70;;;25.67;;
22851;SDS011;11592;45.460;9.240;2023-09-18T10:41:54;40.60;;;24.30;;
22851;SDS011;11592;45.460;9.240;2023-09-18T10:44:28;39.25;;;23.63;;
22851;SDS011;11592;45.460;9.240;2023-09-18T10:46:58;34.63;;;22.90;;
22851;SDS011;11592;45.460;9.240;2023-09-18T10:49:28;32.15;;;21.95;;
22851;SDS011;11592;45.460;9.240;2023-09-18T10:51:55;29.88;;;21.27;;
22851;SDS011;11592;45.460;9.240;2023-09-18T10:54:23;32.30;;;20.33;;
22851;SDS011;11592;45.460;9.240;2023-09-18T10:56:51;29.35;;;20.02;;
22851;SDS011;11592;45.460;9.240;2023-09-18T10:59:19;31.08;;;20.33;;
22851;SDS011;11592;45.460;9.240;2023-09-18T11:01:49;29.50;;;20.15;;
22851;SDS011;11592;45.460;9.240;2023-09-18T11:04:19;27.77;;;17.50;;
22851;SDS011;11592;45.460;9.240;2023-09-18T11:09:21;29.88;;;17.67;;
22851;SDS011;11592;45.460;9.240;2023-09-18T11:17:30;26.70;;;17.77;;
22851;SDS011;11592;45.460;9.240;2023-09-18T11:20:18;27.98;;;17.77;;
22851;SDS011;11592;45.460;9.240;2023-09-18T11:22:56;39.70;;;22.60;;
22851;SDS011;11592;45.460;9.240;2023-09-18T11:25:37;29.17;;;17.83;;
22851;SDS011;11592;45.460;9.240;2023-09-18T11:28:05;20.35;;;15.32;;
22851;SDS011;11592;45.460;9.240;2023-09-18T11:30:35;25.67;;;16.73;;
22851;SDS011;11592;45.460;9.240;2023-09-18T11:33:03;27.10;;;16.45;;
22851;SDS011;11592;45.460;9.240;2023-09-18T11:35:32;46.22;;;26.90;;
22851;SDS011;11592;45.460;9.240;2023-09-18T11:38:03;33.30;;;19.77;;
22851;SDS011;11592;45.460;9.240;2023-09-18T11:40:34;32.47;;;18.07;;
22851;SDS011;11592;45.460;9.240;2023-09-18T11:45:55;25.52;;;15.85;;
22851;SDS011;11592;45.460;9.240;2023-09-18T11:48:28;22.60;;;16.73;;
22851;SDS011;11592;45.460;9.240;2023-09-18T11:50:57;24.83;;;16.25;;
22851;SDS011;11592;45.460;9.240;2023-09-18T11:53:28;26.70;;;16.42;;
22851;SDS011;11592;45.460;9.240;2023-09-18T11:56:00;28.00;;;16.27;;
22851;SDS011;11592;45.460;9.240;2023-09-18T11:58:29;28.10;;;15.98;;
22851;SDS011;11592;45.460;9.240;2023-09-18T12:00:56;34.92;;;16.92;;
22851;SDS011;11592;45.460;9.240;2023-09-18T12:03:29;25.67;;;16.15;;
22851;SDS011;11592;45.460;9.240;2023-09-18T12:05:58;25.27;;;16.27;;
22851;SDS011;11592;45.460;9.240;2023-09-18T12:08:28;27.65;;;16.73;;
22851;SDS011;11592;45.460;9.240;2023-09-18T12:10:57;21.60;;;14.70;;
22851;SDS011;11592;45.460;9.240;2023-09-18T12:13:25;23.77;;;14.60;;
22851;SDS011;11592;45.460;9.240;2023-09-18T12:15:56;24.27;;;14.52;;
22851;SDS011;11592;45.460;9.240;2023-09-18T12:18:26;23.27;;;14.35;;
22851;SDS011;11592;45.460;9.240;2023-09-18T12:20:56;22.35;;;14.65;;
22851;SDS011;11592;45.460;9.240;2023-09-18T12:23:25;20.80;;;14.52;;
22851;SDS011;11592;45.460;9.240;2023-09-18T12:25:58;21.95;;;15.18;;
22851;SDS011;11592;45.460;9.240;2023-09-18T12:28:27;24.55;;;15.05;;
22851;SDS011;11592;45.460;9.240;2023-09-18T12:30:55;23.48;;;14.15;;
22851;SDS011;11592;45.460;9.240;2023-09-18T12:33:23;26.58;;;16.45;;
22851;SDS011;11592;45.460;9.240;2023-09-18T12:35:51;26.42;;;16.48;;
22851;SDS011;11592;45.460;9.240;2023-09-18T12:38:19;27.20;;;15.77;;
22851;SDS011;11592;45.460;9.240;2023-09-18T12:40:49;30.27;;;15.73;;
22851;SDS011;11592;45.460;9.240;2023-09-18T12:43:16;23.20;;;15.93;;
22851;SDS011;11592;45.460;9.240;2023-09-18T12:45:43;30.85;;;16.63;;
22851;SDS011;11592;45.460;9.240;2023-09-18T12:48:12;27.80;;;16.35;;
22851;SDS011;11592;45.460;9.240;2023-09-18T12:50:40;28.08;;;15.68;;
22851;SDS011;11592;45.460;9.240;2023-09-18T12:53:14;25.08;;;17.02;;
22851;SDS011;11592;45.460;9.240;2023-09-18T12:55:41;29.88;;;17.75;;
22851;SDS011;11592;45.460;9.240;2023-09-18T12:58:12;34.15;;;18.77;;
22851;SDS011;11592;45.460;9.240;2023-09-18T13:00:46;28.77;;;17.70;;
22851;SDS011;11592;45.460;9.240;2023-09-18T13:03:18;28.70;;;16.60;;
22851;SDS011;11592;45.460;9.240;2023-09-18T13:05:45;35.05;;;18.40;;
22851;SDS011;11592;45.460;9.240;2023-09-18T13:08:13;33.20;;;18.95;;
22851;SDS011;11592;45.460;9.240;2023-09-18T13:10:42;33.95;;;20.42;;
22851;SDS011;11592;45.460;9.240;2023-09-18T13:13:15;29.80;;;20.92;;
22851;SDS011;11592;45.460;9.240;2023-09-18T13:15:46;37.00;;;21.42;;
22851;SDS011;11592;45.460;9.240;2023-09-18T13:18:15;30.17;;;19.27;;
22851;SDS011;11592;45.460;9.240;2023-09-18T13:20:43;41.42;;;24.23;;
22851;SDS011;11592;45.460;9.240;2023-09-18T13:23:10;37.78;;;22.95;;
22851;SDS011;11592;45.460;9.240;2023-09-18T13:25:37;34.08;;;21.90;;
22851;SDS011;11592;45.460;9.240;2023-09-18T13:28:07;40.83;;;24.10;;
22851;SDS011;11592;45.460;9.240;2023-09-18T13:30:35;35.70;;;23.73;;
22851;SDS011;11592;45.460;9.240;2023-09-18T13:33:07;41.47;;;25.15;;
22851;SDS011;11592;45.460;9.240;2023-09-18T13:35:36;44.38;;;21.60;;
22851;SDS011;11592;45.460;9.240;2023-09-18T13:38:07;33.05;;;22.30;;
22851;SDS011;11592;45.460;9.240;2023-09-18T13:40:34;44.55;;;23.73;;
22851;SDS011;11592;45.460;9.240;2023-09-18T13:43:05;33.55;;;20.02;;
22851;SDS011;11592;45.460;9.240;2023-09-18T13:45:32;32.40;;;18.95;;
22851;SDS011;11592;45.460;9.240;2023-09-18T13:48:02;32.58;;;19.38;;
22851;SDS011;11592;45.460;9.240;2023-09-18T13:50:29;35.58;;;19.10;;
22851;SDS011;11592;45.460;9.240;2023-09-18T13:52:57;31.27;;;19.80;;
22851;SDS011;11592;45.460;9.240;2023-09-18T13:55:23;31.45;;;19.75;;
22851;SDS011;11592;45.460;9.240;2023-09-18T13:57:50;32.22;;;20.63;;
22851;SDS011;11592;45.460;9.240;2023-09-18T14:00:17;31.13;;;20.05;;
22851;SDS011;11592;45.460;9.240;2023-09-18T14:02:44;37.25;;;21.25;;
22851;SDS011;11592;45.460;9.240;2023-09-18T14:05:11;42.15;;;21.60;;
22851;SDS011;11592;45.460;9.240;2023-09-18T14:07:43;38.53;;;22.55;;
22851;SDS011;11592;45.460;9.240;2023-09-18T14:10:10;36.05;;;20.20;;
22851;SDS011;11592;45.460;9.240;2023-09-18T14:12:38;32.28;;;21.05;;
22851;SDS011;11592;45.460;9.240;2023-09-18T14:15:05;37.50;;;20.65;;
22851;SDS011;11592;45.460;9.240;2023-09-18T14:17:36;39.33;;;23.00;;
22851;SDS011;11592;45.460;9.240;2023-09-18T14:20:05;37.13;;;22.08;;
22851;SDS011;11592;45.460;9.240;2023-09-18T14:22:33;41.70;;;24.38;;
22851;SDS011;11592;45.460;9.240;2023-09-18T14:25:02;35.47;;;20.25;;
22851;SDS011;11592;45.460;9.240;2023-09-18T14:27:32;34.28;;;21.38;;
22851;SDS011;11592;45.460;9.240;2023-09-18T14:30:02;36.22;;;22.05;;
22851;SDS011;11592;45.460;9.240;2023-09-18T14:32:33;39.72;;;22.23;;
22851;SDS011;11592;45.460;9.240;2023-09-18T14:35:03;39.88;;;23.48;;
22851;SDS011;11592;45.460;9.240;2023-09-18T14:37:31;39.90;;;21.20;;
22851;SDS011;11592;45.460;9.240;2023-09-18T14:39:58;42.83;;;21.42;;
22851;SDS011;11592;45.460;9.240;2023-09-18T14:42:25;40.80;;;21.05;;
22851;SDS011;11592;45.460;9.240;2023-09-18T14:44:52;35.92;;;20.20;;
22851;SDS011;11592;45.460;9.240;2023-09-18T14:47:18;35.42;;;22.17;;
22851;SDS011;11592;45.460;9.240;2023-09-18T14:49:50;35.00;;;21.63;;
22851;SDS011;11592;45.460;9.240;2023-09-18T14:52:18;36.75;;;22.67;;
22851;SDS011;11592;45.460;9.240;2023-09-18T14:54:47;39.67;;;20.88;;